• Join FlightAware (Why Join?)
  • Login
  • US Flag 
12:29AM EDT


 

Airport Tracker/Info


-or-


 

Live Flight TrackerFlight Track Log ✈ UCA596 ✈ 22-Oct-2013 ✈ KIAD - KBGM

Flight Track Log - Related Links

Times and Time Zones

All times are in EDT time to prevent confusion due to time zone crossing. See the UCA596 flight status page for this flight to view local times or setup timezone preferences in your user account.

Time Position Orientation Groundspeed Altitude Reporting Facility
EDT Latitude Longitude Course Direction KTS MPH feet Rate Location/Type
01:08PM 38.9833 -77.5167 North 168 193 2,700  Level Potomac TRACON
01:09PM 39.0333 -77.5333 345° North 177 204 4,300 1,560 Climbing Potomac TRACON
01:10PM 39.0667 -77.5333 360° North 190 219 5,700 1,560 Climbing Potomac TRACON
01:11PM 39.1167 -77.5333 360° North 179 206 7,400 1,620 Climbing Potomac TRACON
01:12PM 39.1667 -77.5333 360° North 186 214 8,800 1,320 Climbing Potomac TRACON
01:13PM 39.2081 -77.3471 North  Level Estimated
01:13PM 39.2394 -77.5425 354° North 198 228 10,700  Level Washington Center
01:14PM 39.3019 -77.5442 359° North 203 234 12,000 660 Climbing Washington Center
01:15PM 39.3728 -77.5486 357° North 230 265 12,100  Climbing Washington Center
01:16PM 39.4539 -77.5589 354° North 264 304 12,100 480 Level Washington Center
01:17PM 39.5333 -77.5478 North 279 321 13,100 1,140 Climbing Washington Center
01:19PM 39.6508 -77.4556 31° Northeast 294 338 15,100 1,140 Climbing New York Center
01:20PM 39.7200 -77.4514 North 259 298 16,100 900 Climbing New York Center
01:21PM 39.7950 -77.4503 North 259 298 17,000 900 Climbing New York Center
01:22PM 39.8700 -77.4522 359° North 259 298 17,900 960 Climbing New York Center
01:23PM 39.9431 -77.4508 North 259 298 19,000 540 Climbing New York Center
01:24PM 40.0247 -77.4478 North 275 316 19,000  Level New York Center
01:25PM 40.1081 -77.4450 North 295 339 19,000  Level New York Center
01:26PM 40.1917 -77.4450 360° North 300 345 19,000  Level New York Center
01:27PM 40.2769 -77.4450 360° North 305 351 19,000  Level New York Center
01:28PM 40.3606 -77.4447 360° North 305 351 19,000  Level New York Center
01:29PM 40.4503 -77.4425 North 310 357 19,000  Level New York Center
01:30PM 40.5336 -77.4425 360° North 310 357 19,000  Level New York Center
01:31PM 40.6069 -77.4386 North 299 344 19,000 -720 Level New York Center
01:32PM 40.7008 -77.4369 North 297 342 17,600 -1,260 Descending New York Center
01:33PM 40.7836 -77.3708 31° Northeast 311 358 16,500 -1,020 Descending New York Center
01:34PM 40.8519 -77.3061 36° Northeast 322 371 15,600 -780 Descending New York Center
01:35PM 40.9308 -77.2311 36° Northeast 339 390 15,000 -300 Descending New York Center
01:36PM 41.0056 -77.1614 35° Northeast 339 390 15,000  Level New York Center
01:37PM 41.0803 -77.0914 35° Northeast 334 384 15,000  Level New York Center
01:38PM 41.1528 -77.0208 36° Northeast 329 379 15,000  Level New York Center
01:39PM 41.2253 -76.9503 36° Northeast 329 379 15,000  Level New York Center
01:40PM 41.2975 -76.8794 36° Northeast 329 379 15,000  Level New York Center
01:41PM 41.3697 -76.8114 35° Northeast 329 379 15,000  Level New York Center
01:42PM 41.4422 -76.7406 36° Northeast 329 379 15,000  Level New York Center
01:43PM 41.5125 -76.6664 38° Northeast 329 379 15,000  Level New York Center
01:44PM 41.5867 -76.5981 35° Northeast 329 379 15,000 -300 Level New York Center
01:45PM 41.6678 -76.5161 37° Northeast 329 379 14,400 -840 Descending New York Center
01:46PM 41.7400 -76.4444 37° Northeast 329 379 13,400 -960 Descending New York Center
01:47PM 41.8053 -76.3833 35° Northeast 329 379 12,500 -1,200 Descending New York Center
01:48PM 41.8689 -76.3164 38° Northeast 304 350 11,000 -1,440 Descending New York Center
01:49PM 41.9342 -76.2575 34° Northeast 287 330 9,700 -1,500 Descending New York Center
01:50PM 42.0017 -76.1906 36° Northeast 275 316 8,100 -1,560 Descending New York Center
01:51PM 42.0561 -76.1364 36° Northeast 260 299 6,600 -1,560 Descending New York Center
01:52PM 42.1019 -76.0872 39° Northeast 231 266 5,000 -1,500 Descending New York Center
01:53PM 42.1397 -76.0369 45° Northeast 203 234 3,700 -720 Descending New York Center
01:54PM 42.1653 -75.9747 61° Northeast 187 215 3,600 -540 Descending New York Center
01:55PM 42.1842 -75.9231 64° Northeast 169 194 2,700 2,700 Descending New York Center
01:56PM 42.2083 -75.9444 327° Northwest 68 78 9,000 3,120 Climbing New York Center
01:57PM 42.2272 -75.9403 North 68 78 9,000  Level New York Center
01:58PM 42.2000 -75.9667 North  Level FlightAware Approximate
01:58PM 42.2481 -75.9364 North 68 78 9,000  Level New York Center
01:59PM 42.2692 -75.9297 13° North 68 78 9,000  Level New York Center
02:00PM 42.2903 -75.9258 North 68 78 9,000  Level New York Center
02:05PM 42.2084 -75.9796 North  Level Estimated